Time;durP1;ratioP1;P1;durP2;ratioP2;P2;SDS_P1;SDS_P2;PMS_P1;PMS_P2;Temp;Humidity;BMP_temperature;BMP_pressure;BME280_temperature;BME280_humidity;BME280_pressure;Samples;Min_cycle;Max_cycle;Signal;HPM_P1;HPM_P2
2020/12/25 00:01:25;;;;;;;6.17;2.80;;;;;;;3.43;100.00;100959.03;4974349;28;20217;-73
2020/12/25 00:03:51;;;;;;;6.17;2.60;;;;;;;3.48;100.00;100951.16;4962623;28;20185;-74
2020/12/25 00:06:17;;;;;;;3.47;2.60;;;;;;;3.61;100.00;100966.31;4977248;28;20236;-74
2020/12/25 00:08:45;;;;;;;6.50;2.63;;;;;;;3.58;100.00;100964.88;4994740;28;20239;-73
2020/12/25 00:11:11;;;;;;;5.63;2.53;;;;;;;3.66;100.00;100972.66;4977498;28;20224;-73
2020/12/25 00:13:36;;;;;;;5.77;2.60;;;;;;;3.79;100.00;100969.88;5011142;28;20186;-73
2020/12/25 00:16:02;;;;;;;3.47;2.60;;;;;;;3.74;100.00;100961.66;4993482;28;20221;-72
2020/12/25 00:18:30;;;;;;;7.67;2.67;;;;;;;3.67;100.00;100971.63;4994081;28;20622;-73
2020/12/25 00:20:56;;;;;;;4.57;2.37;;;;;;;3.89;100.00;100975.56;4993969;28;20229;-73
2020/12/25 00:23:21;;;;;;;5.77;2.60;;;;;;;3.82;100.00;100976.66;4994618;28;20182;-73
2020/12/25 00:25:47;;;;;;;5.83;2.40;;;;;;;3.91;100.00;100973.47;4993649;28;20593;-73
2020/12/25 00:28:15;;;;;;;4.10;2.30;;;;;;;3.89;100.00;100978.25;4994115;28;20201;-73
2020/12/25 00:30:42;;;;;;;3.80;2.30;;;;;;;3.95;100.00;100977.34;5005638;28;20686;-73
2020/12/25 00:33:07;;;;;;;4.57;2.40;;;;;;;3.89;99.79;100984.41;5014351;28;20642;-73
2020/12/25 00:35:41;;;;;;;7.60;2.20;;;;;;;3.75;100.00;100981.25;5013889;28;20232;-73
2020/12/25 00:38:08;;;;;;;5.00;2.10;;;;;;;3.90;100.00;100986.09;4982029;28;20673;-73
2020/12/25 00:40:34;;;;;;;2.87;2.30;;;;;;;3.91;99.68;100976.97;5013657;28;20224;-73
2020/12/25 00:43:02;;;;;;;7.30;2.57;;;;;;;3.99;100.00;100983.91;4997318;28;20184;-73
2020/12/25 00:45:27;;;;;;;3.53;2.30;;;;;;;3.98;100.00;100979.59;5028767;28;20236;-73
2020/12/25 00:47:56;;;;;;;9.13;2.60;;;;;;;4.03;99.49;100982.41;5029566;28;20225;-73
2020/12/25 00:50:21;;;;;;;4.53;2.70;;;;;;;4.03;99.92;100968.97;5045409;28;20570;-73
2020/12/25 00:52:47;;;;;;;5.90;2.40;;;;;;;3.93;100.00;100977.56;5029440;28;20176;-73
2020/12/25 00:55:18;;;;;;;7.47;2.30;;;;;;;3.97;100.00;100996.75;5028224;28;20192;-73
2020/12/25 00:57:46;;;;;;;6.03;2.70;;;;;;;3.77;100.00;100992.59;5012747;28;20310;-73
2020/12/25 01:00:16;;;;;;;3.07;2.50;;;;;;;3.78;100.00;100989.69;5024737;28;20223;-73
2020/12/25 01:02:42;;;;;;;8.50;2.83;;;;;;;3.83;100.00;100988.00;5012738;28;20173;-73
2020/12/25 01:05:07;;;;;;;3.70;2.50;;;;;;;3.90;100.00;100991.47;4995514;28;20712;-73
2020/12/25 01:07:35;;;;;;;3.97;2.13;;;;;;;3.67;100.00;100990.41;4996109;28;20613;-73
2020/12/25 01:10:03;;;;;;;3.40;2.00;;;;;;;3.64;100.00;100993.53;4996606;28;20193;-73
2020/12/25 01:12:31;;;;;;;5.10;2.10;;;;;;;3.83;100.00;100992.56;4996363;28;20661;-73
2020/12/25 01:14:59;;;;;;;3.40;2.27;;;;;;;3.83;100.00;100998.75;5011436;28;20169;-73
2020/12/25 01:17:26;;;;;;;4.77;2.47;;;;;;;3.71;100.00;101005.03;4996071;28;20228;-74
2020/12/25 01:19:54;;;;;;;5.07;2.30;;;;;;;3.81;100.00;101010.75;4996968;28;20181;-72
2020/12/25 01:22:22;;;;;;;4.23;2.20;;;;;;;3.74;100.00;101009.19;4996145;28;20244;-73
2020/12/25 01:24:52;;;;;;;7.50;2.20;;;;;;;3.74;100.00;101010.00;4995743;28;20178;-73
2020/12/25 01:27:18;;;;;;;5.10;2.00;;;;;;;3.70;100.00;101019.53;5011543;28;20267;-74
2020/12/25 01:29:46;;;;;;;4.07;1.97;;;;;;;3.89;100.00;101029.28;4995746;28;20574;-71
2020/12/25 01:32:11;;;;;;;5.17;2.10;;;;;;;3.91;100.00;101021.81;4995516;28;20614;-74
2020/12/25 01:34:37;;;;;;;5.93;2.33;;;;;;;3.73;100.00;101021.75;4995804;28;20185;-74
2020/12/25 01:37:06;;;;;;;6.53;2.30;;;;;;;3.64;100.00;101022.25;4994915;28;20236;-73
2020/12/25 01:39:31;;;;;;;4.33;2.30;;;;;;;3.73;100.00;101019.06;5012646;28;20189;-73
2020/12/25 01:41:59;;;;;;;3.53;2.00;;;;;;;3.82;100.00;101033.88;5011346;28;20224;-73
2020/12/25 01:44:25;;;;;;;3.27;2.10;;;;;;;3.76;100.00;101029.38;5027850;28;20185;-72
2020/12/25 01:46:53;;;;;;;6.63;2.30;;;;;;;3.68;100.00;101027.00;4995310;28;20224;-72
2020/12/25 01:49:19;;;;;;;2.47;1.83;;;;;;;3.69;100.00;101034.00;4995186;28;20666;-72
2020/12/25 01:51:44;;;;;;;4.57;2.40;;;;;;;3.67;100.00;101040.63;4994925;28;20741;-72
2020/12/25 01:54:12;;;;;;;5.63;2.30;;;;;;;3.47;100.00;101032.72;5012587;28;20169;-73
2020/12/25 01:56:41;;;;;;;3.30;2.10;;;;;;;3.67;100.00;101040.63;4995174;28;20225;-72
2020/12/25 01:59:10;;;;;;;5.47;2.20;;;;;;;3.72;100.00;101044.31;4995738;28;20599;-72
2020/12/25 02:01:37;;;;;;;3.63;2.40;;;;;;;3.55;100.00;101043.19;4994541;28;20367;-72
2020/12/25 02:04:03;;;;;;;6.97;2.27;;;;;;;3.61;100.00;101036.94;4995683;28;20239;-72
2020/12/25 02:06:37;;;;;;;4.60;2.73;;;;;;;3.72;100.00;101046.13;5011432;28;20225;-75
2020/12/25 02:09:03;;;;;;;3.80;2.27;;;;;;;3.60;100.00;101045.22;4996727;28;20215;-71
2020/12/25 02:11:31;;;;;;;3.83;2.27;;;;;;;3.48;100.00;101042.41;4996956;28;20217;-72
2020/12/25 02:13:59;;;;;;;4.03;2.33;;;;;;;3.50;100.00;101043.03;4998604;28;20181;-72
2020/12/25 02:16:24;;;;;;;3.90;2.37;;;;;;;3.49;100.00;101044.03;4994976;28;20228;-72
2020/12/25 02:18:50;;;;;;;5.07;2.80;;;;;;;3.47;100.00;101050.69;4995900;28;20216;-72
2020/12/25 02:21:18;;;;;;;4.13;2.60;;;;;;;3.45;100.00;101052.75;4996740;28;20698;-72
2020/12/25 02:23:46;;;;;;;5.20;2.30;;;;;;;3.39;100.00;101060.84;4996044;28;20181;-72
2020/12/25 02:26:14;;;;;;;3.43;2.60;;;;;;;3.39;100.00;101047.44;4994579;28;20209;-72
2020/12/25 02:28:41;;;;;;;5.63;2.17;;;;;;;3.38;100.00;101057.34;4995308;28;20201;-72
2020/12/25 02:31:09;;;;;;;3.80;2.30;;;;;;;3.36;100.00;101058.63;4978413;28;20220;-73
2020/12/25 02:33:35;;;;;;;7.33;3.00;;;;;;;3.26;100.00;101063.59;4995506;28;20196;-74
2020/12/25 02:36:00;;;;;;;4.30;2.30;;;;;;;3.17;100.00;101062.25;4993420;28;20220;-73
2020/12/25 02:38:28;;;;;;;2.83;2.40;;;;;;;3.42;100.00;101068.47;4993893;28;20212;-74
2020/12/25 02:40:53;;;;;;;4.47;2.40;;;;;;;3.49;100.00;101070.88;5042992;28;20228;-73
2020/12/25 02:43:19;;;;;;;4.03;2.37;;;;;;;3.15;100.00;101073.19;4994301;28;20196;-73
2020/12/25 02:45:50;;;;;;;4.67;2.70;;;;;;;3.34;100.00;101076.78;4993734;28;20224;-74
2020/12/25 02:48:18;;;;;;;9.07;2.80;;;;;;;3.39;100.00;101083.16;5027077;28;20761;-73
2020/12/25 02:50:43;;;;;;;5.27;2.50;;;;;;;3.34;100.00;101087.53;5026628;28;20299;-73
2020/12/25 02:53:09;;;;;;;4.20;2.33;;;;;;;3.33;100.00;101077.81;5027161;28;20568;-73
2020/12/25 02:55:35;;;;;;;5.33;2.50;;;;;;;3.26;100.00;101074.34;5010366;28;20217;-73
2020/12/25 02:58:03;;;;;;;6.10;2.63;;;;;;;3.25;100.00;101083.44;4994315;28;20304;-72
2020/12/25 03:00:31;;;;;;;5.10;2.50;;;;;;;3.28;100.00;101093.72;4993420;28;20307;-73
2020/12/25 03:02:57;;;;;;;4.20;2.30;;;;;;;3.27;100.00;101092.91;5011990;28;20181;-73
2020/12/25 03:05:22;;;;;;;3.30;2.60;;;;;;;3.28;100.00;101094.56;4993101;28;20662;-74
2020/12/25 03:07:48;;;;;;;6.30;2.90;;;;;;;3.19;100.00;101100.41;4994404;28;20259;-73
2020/12/25 03:10:16;;;;;;;4.03;2.80;;;;;;;3.16;100.00;101103.50;4993812;28;20184;-73
2020/12/25 03:12:44;;;;;;;5.70;2.60;;;;;;;3.23;100.00;101101.63;4994825;28;20231;-73
2020/12/25 03:15:09;;;;;;;5.57;3.00;;;;;;;3.31;100.00;101098.69;5009740;28;20181;-73
2020/12/25 03:17:40;;;;;;;4.87;2.73;;;;;;;3.05;100.00;101113.03;4993779;28;20220;-73
2020/12/25 03:20:05;;;;;;;3.20;2.90;;;;;;;3.24;100.00;101114.00;4993975;28;20700;-72
2020/12/25 03:22:33;;;;;;;6.20;2.80;;;;;;;3.36;100.00;101123.84;4994870;28;20260;-73
2020/12/25 03:24:59;;;;;;;3.80;2.80;;;;;;;3.21;100.00;101122.50;4994106;28;20185;-74
2020/12/25 03:27:27;;;;;;;7.63;3.17;;;;;;;3.24;100.00;101130.09;4993746;28;20233;-73
2020/12/25 03:29:53;;;;;;;4.30;3.03;;;;;;;3.24;100.00;101122.03;5011123;28;20185;-73
2020/12/25 03:32:20;;;;;;;6.43;3.07;;;;;;;3.17;100.00;101118.59;5010389;28;20756;-73
2020/12/25 03:34:46;;;;;;;7.80;3.07;;;;;;;3.19;100.00;101127.25;4994872;28;20231;-73
2020/12/25 03:37:11;;;;;;;5.33;3.20;;;;;;;3.03;100.00;101132.25;4996424;28;20648;-73
2020/12/25 03:39:37;;;;;;;5.13;3.00;;;;;;;3.00;100.00;101125.44;4999061;28;20189;-72
2020/12/25 03:42:03;;;;;;;6.13;3.40;;;;;;;2.99;100.00;101131.03;4997491;28;20776;-73
2020/12/25 03:44:33;;;;;;;5.13;3.10;;;;;;;2.74;100.00;101122.84;4997980;28;20188;-73
2020/12/25 03:47:01;;;;;;;6.73;3.00;;;;;;;2.90;100.00;101122.41;4997434;28;20303;-73
2020/12/25 03:49:29;;;;;;;5.47;3.20;;;;;;;2.84;100.00;101136.66;5014528;28;20176;-74
2020/12/25 03:51:55;;;;;;;4.97;3.17;;;;;;;2.83;100.00;101135.00;5013121;28;20240;-73
2020/12/25 03:54:20;;;;;;;5.57;3.43;;;;;;;2.87;100.00;101141.59;5029918;28;20185;-73
2020/12/25 03:56:46;;;;;;;6.83;3.50;;;;;;;2.75;100.00;101150.50;5009741;28;20563;-73
2020/12/25 03:59:11;;;;;;;4.90;3.23;;;;;;;2.80;100.00;101143.47;4978014;28;20212;-73
2020/12/25 04:01:42;;;;;;;4.90;3.27;;;;;;;2.63;100.00;101162.06;4961289;28;20217;-73
2020/12/25 04:04:08;;;;;;;7.43;3.47;;;;;;;2.84;100.00;101155.44;4994080;28;20194;-75
2020/12/25 04:06:33;;;;;;;5.73;3.27;;;;;;;2.75;100.00;101151.31;4993737;28;20276;-73
2020/12/25 04:08:59;;;;;;;7.37;3.77;;;;;;;2.78;100.00;101155.44;4978512;28;20695;-73
2020/12/25 04:11:24;;;;;;;5.97;3.23;;;;;;;2.67;100.00;101170.31;4976964;28;20221;-73
2020/12/25 04:13:52;;;;;;;6.27;3.80;;;;;;;2.67;100.00;101159.59;4993707;28;20681;-73
2020/12/25 04:16:23;;;;;;;6.00;3.70;;;;;;;2.67;100.00;101159.59;4977581;28;21036;-73
2020/12/25 04:18:51;;;;;;;7.40;3.50;;;;;;;2.54;100.00;101163.31;4978531;28;20212;-73
2020/12/25 04:21:18;;;;;;;6.33;3.70;;;;;;;2.70;100.00;101163.72;4976941;28;20222;-73
2020/12/25 04:23:47;;;;;;;5.80;4.10;;;;;;;2.74;100.00;101171.13;4978390;28;20182;-73
2020/12/25 04:26:14;;;;;;;6.53;3.97;;;;;;;2.71;100.00;101171.56;4993384;28;20225;-73
2020/12/25 04:28:40;;;;;;;6.40;4.07;;;;;;;2.79;100.00;101179.38;4978385;28;20194;-73
2020/12/25 04:31:06;;;;;;;7.23;4.53;;;;;;;2.59;100.00;101182.31;4993558;28;20240;-73
2020/12/25 04:33:36;;;;;;;7.83;4.50;;;;;;;2.50;100.00;101187.03;4962888;28;20236;-73
2020/12/25 04:36:02;;;;;;;8.10;4.87;;;;;;;2.56;100.00;101188.06;4961589;28;20225;-73
2020/12/25 04:38:28;;;;;;;6.30;4.43;;;;;;;2.48;100.00;101191.78;5010267;28;20292;-73
2020/12/25 04:40:56;;;;;;;10.07;4.33;;;;;;;2.27;100.00;101191.16;5016239;28;20217;-74
2020/12/25 04:43:24;;;;;;;6.70;4.73;;;;;;;2.38;100.00;101190.53;4997766;28;20722;-74
2020/12/25 04:45:50;;;;;;;7.40;4.97;;;;;;;2.45;100.00;101191.38;4995816;28;20646;-74
2020/12/25 04:48:15;;;;;;;6.67;5.03;;;;;;;2.56;100.00;101190.75;5011694;28;20197;-74
2020/12/25 04:50:41;;;;;;;6.73;4.40;;;;;;;2.59;100.00;101188.47;4994922;28;20875;-73
2020/12/25 04:53:06;;;;;;;7.33;4.33;;;;;;;2.51;100.00;101195.91;4980364;28;20181;-73
2020/12/25 04:55:32;;;;;;;9.03;4.50;;;;;;;2.55;100.00;101191.78;4979435;28;20216;-73
2020/12/25 04:58:00;;;;;;;10.70;4.13;;;;;;;2.54;100.00;101207.03;5012580;28;20299;-73
2020/12/25 05:00:27;;;;;;;13.43;4.80;;;;;;;2.67;100.00;101190.94;5028757;28;20192;-73
2020/12/25 05:02:55;;;;;;;7.93;4.50;;;;;;;2.43;100.00;101209.50;4996585;28;20185;-74
2020/12/25 05:05:29;;;;;;;12.93;5.57;;;;;;;2.39;100.00;101214.47;5028081;28;20235;-71
2020/12/25 05:07:58;;;;;;;7.53;5.10;;;;;;;2.38;100.00;101206.63;5012560;28;20197;-74
2020/12/25 05:10:24;;;;;;;9.80;4.70;;;;;;;2.25;100.00;101213.84;4994905;28;20322;-71
2020/12/25 05:12:52;;;;;;;9.07;4.67;;;;;;;2.20;100.00;101210.94;4996498;28;20264;-73
2020/12/25 05:15:20;;;;;;;10.03;4.27;;;;;;;2.23;100.00;101206.00;4995407;28;20535;-73
2020/12/25 05:17:47;;;;;;;8.67;3.63;;;;;;;2.21;100.00;101215.28;5012591;28;20248;-72
2020/12/25 05:20:13;;;;;;;9.33;3.60;;;;;;;1.89;100.00;101212.53;5028227;28;20738;-72
2020/12/25 05:22:41;;;;;;;7.97;3.83;;;;;;;1.83;100.00;101213.34;5013011;28;20177;-73
2020/12/25 05:25:09;;;;;;;7.90;3.93;;;;;;;1.89;100.00;101221.44;5011750;28;20185;-72
2020/12/25 05:27:37;;;;;;;9.53;3.93;;;;;;;1.87;100.00;101217.28;5012225;28;20860;-73
2020/12/25 05:30:06;;;;;;;7.77;3.63;;;;;;;1.76;100.00;101209.84;5012049;28;20693;-73
2020/12/25 05:32:33;;;;;;;7.33;4.07;;;;;;;1.74;100.00;101217.25;4996694;28;20260;-73
2020/12/25 05:34:59;;;;;;;11.23;4.50;;;;;;;1.67;100.00;101219.91;4996287;28;20271;-73
2020/12/25 05:37:37;;;;;;;8.17;3.80;;;;;;;1.50;100.00;101230.34;5028561;28;20676;-73
2020/12/25 05:40:09;;;;;;;10.87;4.20;;;;;;;1.35;100.00;101232.34;5012016;28;20611;-73
2020/12/25 05:42:47;;;;;;;10.70;3.57;;;;;;;1.44;100.00;101236.50;5028707;28;20188;-73
2020/12/25 05:45:17;;;;;;;9.20;4.43;;;;;;;1.42;100.00;101239.38;5010000;28;20211;-73
2020/12/25 05:47:47;;;;;;;7.57;4.00;;;;;;;1.23;100.00;101240.13;5011842;28;20606;-74
2020/12/25 05:50:19;;;;;;;10.93;4.03;;;;;;;1.16;100.00;101233.91;4994998;28;20215;-74
2020/12/25 05:52:46;;;;;;;10.27;4.20;;;;;;;1.18;100.00;101239.88;5011837;28;20666;-74
2020/12/25 05:55:19;;;;;;;6.27;4.10;;;;;;;1.13;100.00;101248.69;4994841;28;20185;-73
2020/12/25 05:57:49;;;;;;;10.13;4.43;;;;;;;1.03;100.00;101253.59;5011683;28;20217;-73
2020/12/25 06:00:14;;;;;;;9.07;3.87;;;;;;;0.87;100.00;101264.56;4994311;28;20567;-73
2020/12/25 06:02:42;;;;;;;5.87;3.60;;;;;;;0.98;100.00;101256.00;5027793;28;20173;-73
2020/12/25 06:05:08;;;;;;;10.63;3.73;;;;;;;0.74;100.00;101258.31;5009938;28;20315;-73
2020/12/25 06:07:33;;;;;;;9.80;4.00;;;;;;;0.84;100.00;101270.31;5044877;28;20203;-73
2020/12/25 06:10:00;;;;;;;7.40;4.00;;;;;;;0.78;100.00;101260.41;5028380;28;20240;-74
2020/12/25 06:12:37;;;;;;;8.80;4.23;;;;;;;0.76;100.00;101266.97;5011019;28;20232;-73
2020/12/25 06:15:09;;;;;;;9.53;4.13;;;;;;;0.76;100.00;101268.59;5027111;28;20180;-73
2020/12/25 06:17:37;;;;;;;8.97;4.00;;;;;;;0.90;100.00;101274.91;5007741;28;20256;-73
2020/12/25 06:20:05;;;;;;;10.70;4.37;;;;;;;0.91;100.00;101280.00;4959115;28;20178;-73
2020/12/25 06:22:34;;;;;;;8.07;4.40;;;;;;;0.83;100.00;101284.69;4991407;28;20196;-73
2020/12/25 06:25:00;;;;;;;11.33;4.93;;;;;;;0.81;100.00;101278.72;4959429;28;20555;-73
2020/12/25 06:27:28;;;;;;;10.20;4.33;;;;;;;0.94;100.00;101281.50;4974898;28;20667;-73
2020/12/25 06:29:57;;;;;;;8.67;4.80;;;;;;;0.88;100.00;101287.59;4992966;28;20186;-73
2020/12/25 06:32:25;;;;;;;9.47;4.90;;;;;;;0.90;100.00;101290.94;5010538;28;20283;-73
2020/12/25 06:34:52;;;;;;;12.23;5.17;;;;;;;0.91;100.00;101293.38;5010887;28;20185;-73
2020/12/25 06:37:18;;;;;;;8.07;5.00;;;;;;;0.82;100.00;101291.06;5010255;28;20217;-73
2020/12/25 06:39:54;;;;;;;7.80;4.50;;;;;;;0.67;100.00;101295.66;5026572;28;20741;-71
2020/12/25 06:42:32;;;;;;;9.33;4.90;;;;;;;0.78;100.00;101303.97;5026343;28;20629;-73
2020/12/25 06:45:01;;;;;;;11.20;4.97;;;;;;;0.63;100.00;101310.44;5009973;28;20212;-72
2020/12/25 06:47:28;;;;;;;9.80;5.00;;;;;;;0.70;100.00;101310.50;4994471;28;20740;-72
2020/12/25 06:49:53;;;;;;;9.57;4.67;;;;;;;0.61;100.00;101323.16;5011115;28;20181;-72
2020/12/25 06:52:30;;;;;;;12.33;4.70;;;;;;;0.67;100.00;101327.72;4993237;28;20224;-72
2020/12/25 06:54:56;;;;;;;9.97;4.50;;;;;;;0.45;100.00;101319.94;5010364;28;20191;-74
2020/12/25 06:57:28;;;;;;;8.83;4.73;;;;;;;0.49;100.00;101332.69;4992956;28;20229;-73
2020/12/25 07:00:03;;;;;;;7.60;4.40;;;;;;;0.48;100.00;101333.72;5010828;28;20187;-73
2020/12/25 07:02:29;;;;;;;11.67;4.77;;;;;;;0.51;100.00;101333.38;4994280;28;20227;-73
2020/12/25 07:05:03;;;;;;;11.03;4.83;;;;;;;0.55;100.00;101329.28;4994187;28;20173;-73
2020/12/25 07:07:32;;;;;;;9.73;4.57;;;;;;;0.58;100.00;101333.41;4993614;28;20224;-73
2020/12/25 07:10:01;;;;;;;11.17;4.50;;;;;;;0.47;100.00;101340.09;5011564;28;20189;-72
2020/12/25 07:12:26;;;;;;;9.27;4.20;;;;;;;0.41;100.00;101343.53;5025691;28;20780;-72
2020/12/25 07:14:56;;;;;;;10.20;4.30;;;;;;;0.30;100.00;101350.41;5026072;28;20173;-73
2020/12/25 07:17:22;;;;;;;9.40;4.63;;;;;;;0.40;100.00;101344.56;4977838;28;20286;-72
2020/12/25 07:19:48;;;;;;;12.63;4.50;;;;;;;0.45;100.00;101350.13;5010595;28;20200;-73
2020/12/25 07:22:16;;;;;;;8.10;3.90;;;;;;;0.34;100.00;101346.31;5010345;28;20626;-73
2020/12/25 07:24:41;;;;;;;10.43;4.97;;;;;;;0.51;100.00;101365.41;4994069;28;20173;-72
2020/12/25 07:27:07;;;;;;;9.33;5.03;;;;;;;0.48;100.00;101357.78;5010724;28;20216;-72
2020/12/25 07:29:33;;;;;;;6.17;4.50;;;;;;;0.50;100.00;101369.09;5010608;28;20230;-72
2020/12/25 07:32:01;;;;;;;9.97;4.47;;;;;;;0.53;100.00;101367.88;5025889;28;20703;-73
2020/12/25 07:34:29;;;;;;;12.07;4.03;;;;;;;0.51;100.00;101375.25;5026411;28;20806;-73
2020/12/25 07:36:55;;;;;;;6.70;4.73;;;;;;;0.57;100.00;101375.34;5025979;28;20279;-73
2020/12/25 07:39:24;;;;;;;12.73;7.67;;;;;;;0.52;100.00;101377.75;5010502;28;20177;-73
2020/12/25 07:41:50;;;;;;;8.70;4.20;;;;;;;0.54;100.00;101383.72;4977817;28;20220;-72
2020/12/25 07:44:19;;;;;;;10.40;4.03;;;;;;;0.47;100.00;101374.00;5026476;28;20170;-73
2020/12/25 07:46:45;;;;;;;8.27;4.50;;;;;;;0.55;100.00;101381.88;4993703;28;20233;-72
2020/12/25 07:49:15;;;;;;;8.07;3.90;;;;;;;0.46;100.00;101377.69;5009843;28;20311;-72
2020/12/25 07:51:40;;;;;;;10.97;3.80;;;;;;;0.57;100.00;101386.03;5026510;28;20303;-72
2020/12/25 07:54:08;;;;;;;10.13;3.80;;;;;;;0.53;100.00;101387.44;4993925;28;20642;-72
2020/12/25 07:56:35;;;;;;;9.70;4.00;;;;;;;0.52;100.00;101398.31;5009391;28;20228;-73
2020/12/25 07:59:04;;;;;;;9.10;4.43;;;;;;;0.62;100.00;101391.59;5008692;28;20216;-72
2020/12/25 08:01:32;;;;;;;10.33;4.20;;;;;;;0.58;100.00;101395.69;5008155;28;20231;-72
2020/12/25 08:04:01;;;;;;;7.90;4.60;;;;;;;0.59;100.00;101397.34;5009137;28;20174;-73
2020/12/25 08:06:32;;;;;;;10.27;4.13;;;;;;;0.60;100.00;101404.34;5007158;28;20235;-73
2020/12/25 08:08:59;;;;;;;9.10;3.63;;;;;;;0.54;100.00;101399.75;4993385;28;20201;-72
2020/12/25 08:11:28;;;;;;;7.67;3.33;;;;;;;0.71;100.00;101408.34;5025720;28;20919;-73
2020/12/25 08:13:59;;;;;;;8.70;3.87;;;;;;;0.76;100.00;101406.75;4993778;28;20272;-73
2020/12/25 08:16:24;;;;;;;8.27;3.37;;;;;;;0.65;100.00;101411.78;4993627;28;20293;-72
2020/12/25 08:18:54;;;;;;;8.97;3.17;;;;;;;0.48;100.00;101416.56;5011040;28;20272;-72
2020/12/25 08:21:20;;;;;;;7.50;3.67;;;;;;;0.56;100.00;101412.94;4993943;28;20311;-72
2020/12/25 08:23:49;;;;;;;5.37;2.97;;;;;;;0.51;100.00;101410.84;5013540;28;20682;-71
2020/12/25 08:26:16;;;;;;;6.90;2.60;;;;;;;0.72;100.00;101410.03;5011933;28;20221;-72
2020/12/25 08:28:43;;;;;;;8.33;2.80;;;;;;;0.73;100.00;101407.13;4997971;28;20189;-73
2020/12/25 08:31:18;;;;;;;4.83;2.50;;;;;;;0.70;100.00;101418.22;4996534;28;20228;-73
2020/12/25 08:33:53;;;;;;;8.93;2.87;;;;;;;0.76;100.00;101425.47;4997859;28;20192;-73
2020/12/25 08:36:19;;;;;;;9.17;2.77;;;;;;;0.93;100.00;101417.00;5011554;28;20216;-72
2020/12/25 08:38:47;;;;;;;6.23;2.60;;;;;;;0.79;100.00;101422.44;5026117;28;20218;-73
2020/12/25 08:41:13;;;;;;;5.20;2.30;;;;;;;0.76;100.00;101423.63;4977077;28;20217;-72
2020/12/25 08:43:39;;;;;;;6.30;2.50;;;;;;;0.83;100.00;101423.69;5008996;28;20200;-73
2020/12/25 08:46:05;;;;;;;7.43;2.30;;;;;;;1.04;100.00;101421.81;4976354;28;20388;-74
2020/12/25 08:48:31;;;;;;;5.07;2.30;;;;;;;1.10;100.00;101425.56;4977106;28;20248;-74
2020/12/25 08:51:12;;;;;;;5.43;2.03;;;;;;;1.04;100.00;101431.69;4993127;28;20304;-73
2020/12/25 08:53:51;;;;;;;3.93;2.30;;;;;;;1.13;100.00;101442.88;5008796;28;20260;-73
2020/12/25 08:56:21;;;;;;;4.07;2.20;;;;;;;1.13;100.00;101442.88;5011798;28;20769;-75
2020/12/25 08:59:06;;;;;;;4.87;2.13;;;;;;;1.21;100.00;101436.59;4996299;28;20224;-73
2020/12/25 09:01:33;;;;;;;7.00;2.53;;;;;;;1.14;100.00;101439.19;4996945;28;20362;-73
2020/12/25 09:03:59;;;;;;;6.63;2.10;;;;;;;1.32;100.00;101438.72;4996461;28;20184;-72
2020/12/25 09:06:25;;;;;;;7.33;2.70;;;;;;;1.49;100.00;101448.13;4995600;28;20225;-72
2020/12/25 09:08:52;;;;;;;6.17;2.30;;;;;;;1.35;100.00;101451.72;4996645;28;20242;-72
2020/12/25 09:11:25;;;;;;;5.57;2.60;;;;;;;1.43;100.00;101451.56;4996347;28;20661;-72
2020/12/25 09:13:51;;;;;;;8.97;2.67;;;;;;;1.41;100.00;101454.47;4981127;28;20185;-72
2020/12/25 09:16:17;;;;;;;6.37;2.20;;;;;;;1.58;100.00;101458.50;4994717;28;20221;-72
2020/12/25 09:18:43;;;;;;;4.33;1.97;;;;;;;1.71;100.00;101453.25;5028704;28;20240;-72
2020/12/25 09:21:09;;;;;;;3.13;1.83;;;;;;;1.60;100.00;101472.50;5010613;28;20237;-73
2020/12/25 09:23:35;;;;;;;4.07;2.00;;;;;;;1.70;100.00;101472.97;4989440;28;20186;-73
2020/12/25 09:26:01;;;;;;;3.90;2.10;;;;;;;1.73;100.00;101467.25;5028722;28;20717;-73
2020/12/25 09:28:26;;;;;;;4.50;1.90;;;;;;;1.78;100.00;101467.50;4999409;28;20197;-73
2020/12/25 09:30:55;;;;;;;3.33;1.97;;;;;;;1.87;100.00;101461.78;5004053;28;20900;-72
2020/12/25 09:33:21;;;;;;;5.37;2.20;;;;;;;1.92;100.00;101462.84;4997025;28;20232;-74
2020/12/25 09:35:47;;;;;;;3.77;1.80;;;;;;;2.07;100.00;101466.22;4996617;28;20209;-72
2020/12/25 09:38:13;;;;;;;3.73;1.80;;;;;;;1.83;100.00;101467.72;5001038;28;20770;-71
2020/12/25 09:40:39;;;;;;;3.50;1.70;;;;;;;1.85;100.00;101471.03;4995007;28;20390;-72
2020/12/25 09:43:07;;;;;;;2.97;1.87;;;;;;;2.00;100.00;101465.38;4995213;28;20215;-75
2020/12/25 09:45:33;;;;;;;3.53;1.60;;;;;;;2.05;100.00;101473.66;4975519;28;20221;-72
2020/12/25 09:48:01;;;;;;;6.57;2.50;;;;;;;2.07;99.88;101462.69;4992744;28;20627;-72
2020/12/25 09:50:27;;;;;;;5.57;1.60;;;;;;;2.14;100.00;101469.75;4995621;28;20225;-72
2020/12/25 09:52:55;;;;;;;4.27;1.43;;;;;;;2.21;99.44;101456.41;4979308;28;20236;-73
2020/12/25 09:55:21;;;;;;;5.37;1.70;;;;;;;2.33;98.79;101461.81;5012517;28;20238;-72
2020/12/25 09:57:47;;;;;;;3.90;1.40;;;;;;;2.47;98.22;101460.00;4963319;28;20216;-72
2020/12/25 10:00:17;;;;;;;3.43;1.40;;;;;;;2.44;96.28;101468.47;4994569;28;20558;-74
2020/12/25 10:02:42;;;;;;;3.93;1.63;;;;;;;2.53;96.15;101467.28;5028083;28;20181;-72
2020/12/25 10:05:12;;;;;;;3.30;1.63;;;;;;;2.47;95.85;101462.69;4993543;28;20177;-72
2020/12/25 10:07:43;;;;;;;5.10;1.57;;;;;;;2.71;95.38;101479.91;5038282;28;20705;-72
2020/12/25 10:10:11;;;;;;;4.23;1.60;;;;;;;2.70;95.41;101470.19;4995357;28;20654;-71
2020/12/25 10:12:37;;;;;;;1.90;1.30;;;;;;;2.55;94.22;101470.56;4994608;28;20169;-73
2020/12/25 10:15:03;;;;;;;3.80;1.63;;;;;;;2.62;95.04;101471.41;4978678;28;20192;-72
2020/12/25 10:17:29;;;;;;;4.40;1.60;;;;;;;2.86;94.80;101474.38;5011812;28;20279;-73
2020/12/25 10:19:59;;;;;;;2.83;1.23;;;;;;;2.78;93.74;101483.44;5011402;28;20551;-71
2020/12/25 10:22:25;;;;;;;5.83;1.27;;;;;;;2.54;94.58;101479.63;4995444;28;20294;-73
2020/12/25 10:24:53;;;;;;;4.97;1.60;;;;;;;2.71;94.16;101482.59;4995275;28;20194;-72
2020/12/25 10:27:19;;;;;;;3.93;1.40;;;;;;;2.64;92.79;101485.44;4958526;28;20233;-73
2020/12/25 10:29:45;;;;;;;1.83;1.50;;;;;;;2.68;93.23;101480.31;4991770;28;20190;-73
2020/12/25 10:32:11;;;;;;;3.93;1.10;;;;;;;2.68;93.39;101477.63;4988586;28;20260;-73
2020/12/25 10:34:41;;;;;;;2.73;1.30;;;;;;;2.72;94.00;101473.50;4990983;28;20272;-73
2020/12/25 10:37:06;;;;;;;5.07;1.47;;;;;;;2.75;93.37;101478.47;5006888;28;20311;-74
2020/12/25 10:39:32;;;;;;;3.07;1.10;;;;;;;2.68;93.07;101484.84;5011253;28;20666;-74
2020/12/25 10:41:58;;;;;;;2.87;1.30;;;;;;;2.89;91.48;101473.97;4986842;28;20220;-74
2020/12/25 10:44:24;;;;;;;3.23;1.27;;;;;;;3.01;90.92;101480.41;4984260;28;20186;-75
2020/12/25 10:46:50;;;;;;;1.93;1.00;;;;;;;3.12;91.44;101486.00;4984843;28;20232;-74
2020/12/25 10:49:18;;;;;;;3.77;1.13;;;;;;;3.20;90.98;101483.09;5012953;28;22261;-73
2020/12/25 10:51:45;;;;;;;1.53;1.00;;;;;;;3.25;89.59;101497.56;5016504;28;20682;-72
2020/12/25 10:54:13;;;;;;;1.87;0.70;;;;;;;3.30;88.11;101488.91;4971866;28;20797;-73
2020/12/25 10:56:41;;;;;;;7.97;4.50;;;;;;;3.40;89.45;101492.00;5003086;28;20214;-73
2020/12/25 10:59:11;;;;;;;3.33;1.30;;;;;;;3.36;88.03;101491.59;5001686;28;20228;-73
2020/12/25 11:01:37;;;;;;;3.23;1.10;;;;;;;3.24;87.52;101490.56;5018296;28;20589;-74
2020/12/25 11:04:05;;;;;;;5.00;1.10;;;;;;;3.25;86.88;101488.69;4988173;28;20188;-73
2020/12/25 11:06:37;;;;;;;2.23;1.10;;;;;;;3.36;87.55;101493.44;4986075;28;20220;-75
2020/12/25 11:09:04;;;;;;;2.10;0.90;;;;;;;3.25;87.71;101494.06;5009771;28;20201;-73
2020/12/25 11:11:30;;;;;;;4.53;1.10;;;;;;;3.18;87.38;101502.09;4983394;28;20296;-73
2020/12/25 11:14:02;;;;;;;3.40;1.10;;;;;;;3.38;86.95;101510.19;4985140;28;20192;-73
2020/12/25 11:16:29;;;;;;;4.30;1.27;;;;;;;3.27;86.91;101502.72;5000455;28;20586;-73
2020/12/25 11:18:58;;;;;;;4.97;1.20;;;;;;;3.17;88.24;101494.25;4989681;28;20732;-73
2020/12/25 11:21:28;;;;;;;4.47;1.20;;;;;;;3.39;87.88;101499.25;4988904;28;20253;-73
2020/12/25 11:23:56;;;;;;;2.43;0.97;;;;;;;3.44;86.25;101502.97;5001353;28;20192;-73
2020/12/25 11:26:25;;;;;;;2.80;1.10;;;;;;;3.49;86.74;101499.66;5006490;28;20650;-74
2020/12/25 11:28:52;;;;;;;3.13;1.57;;;;;;;3.32;86.38;101497.59;4991579;28;20674;-74